createdAt,value
2022-09-05T00:02:26.291Z,4.67
2022-09-05T00:05:15.101Z,4.77
2022-09-05T00:08:00.602Z,4.27
2022-09-05T00:10:35.943Z,3.97
2022-09-05T00:13:10.025Z,3.93
2022-09-05T00:16:24.637Z,3.90
2022-09-05T00:24:20.425Z,3.70
2022-09-05T00:24:34.504Z,3.80
2022-09-05T00:25:51.205Z,3.50
2022-09-05T00:28:34.980Z,3.73
2022-09-05T00:31:53.406Z,3.87
2022-09-05T00:34:56.273Z,4.00
2022-09-05T00:37:47.521Z,3.47
2022-09-05T00:40:21.128Z,3.50
2022-09-05T00:42:51.474Z,3.73
2022-09-05T00:45:27.854Z,3.23
2022-09-05T00:47:54.440Z,4.33
2022-09-05T00:50:28.181Z,4.53
2022-09-05T00:53:06.646Z,3.67
2022-09-05T00:56:01.537Z,3.83
2022-09-05T00:58:40.792Z,3.37
2022-09-05T01:01:31.682Z,3.20
2022-09-05T01:04:07.998Z,3.27
2022-09-05T01:06:41.870Z,3.47
2022-09-05T01:09:39.765Z,4.03
2022-09-05T01:12:27.407Z,3.10
2022-09-05T01:15:08.386Z,3.30
2022-09-05T01:17:56.408Z,3.50
2022-09-05T01:20:55.857Z,2.80
2022-09-05T01:23:40.690Z,3.27
2022-09-05T01:26:27.812Z,3.57
2022-09-05T01:29:16.478Z,3.40
2022-09-05T01:32:23.208Z,3.10
2022-09-05T01:35:27.201Z,3.10
2022-09-05T01:37:55.875Z,3.20
2022-09-05T01:40:53.663Z,3.47
2022-09-05T01:43:58.796Z,3.37
2022-09-05T01:46:53.649Z,3.30
2022-09-05T01:49:41.624Z,3.40
2022-09-05T01:52:26.122Z,3.23
2022-09-05T01:55:17.788Z,4.03
2022-09-05T01:57:56.344Z,2.90
2022-09-05T02:00:29.718Z,3.30
2022-09-05T02:03:15.212Z,2.50
2022-09-05T02:06:09.947Z,3.43
2022-09-05T02:08:45.520Z,4.37
2022-09-05T02:11:13.317Z,2.63
2022-09-05T02:13:51.564Z,3.17
2022-09-05T02:16:38.816Z,3.00
2022-09-05T02:19:14.976Z,2.97
2022-09-05T02:22:00.255Z,3.30
2022-09-05T02:24:33.144Z,2.80
2022-09-05T02:28:03.489Z,2.87
2022-09-05T02:30:20.558Z,2.63
2022-09-05T02:33:10.356Z,3.00
2022-09-05T02:35:45.984Z,3.03
2022-09-05T02:41:51.327Z,2.70
2022-09-05T02:45:18.938Z,2.80
2022-09-05T02:45:25.412Z,2.90
2022-09-05T02:47:54.763Z,2.80
2022-09-05T02:53:13.793Z,2.77
2022-09-05T02:57:41.941Z,2.73
2022-09-05T02:58:04.275Z,2.77
2022-09-05T02:59:39.544Z,2.60
2022-09-05T03:02:25.376Z,2.47
2022-09-05T03:04:55.563Z,2.50
2022-09-05T03:07:51.823Z,2.77
2022-09-05T03:10:53.462Z,3.00
2022-09-05T03:13:58.006Z,3.47
2022-09-05T03:17:02.557Z,2.80
2022-09-05T03:19:56.743Z,2.70
2022-09-05T03:22:38.804Z,3.47
2022-09-05T03:25:30.852Z,2.50
2022-09-05T03:28:18.656Z,2.90
2022-09-05T03:31:06.723Z,2.60
2022-09-05T03:33:58.879Z,2.77
2022-09-05T03:36:41.967Z,2.80
2022-09-05T03:39:32.508Z,4.13
2022-09-05T03:42:14.845Z,2.47
2022-09-05T03:45:38.426Z,2.63
2022-09-05T03:48:34.033Z,2.70
2022-09-05T03:57:07.465Z,2.90
2022-09-05T03:57:25.335Z,2.77
2022-09-05T03:58:01.304Z,2.77
2022-09-05T04:02:35.295Z,2.60
2022-09-05T04:08:07.988Z,2.63
2022-09-05T04:08:27.806Z,2.60
2022-09-05T04:10:07.445Z,2.87
2022-09-05T04:12:36.523Z,2.93
2022-09-05T04:15:15.125Z,2.70
2022-09-05T04:17:51.582Z,2.70
2022-09-05T04:20:29.947Z,3.20
2022-09-05T04:23:14.328Z,2.60
2022-09-05T04:26:19.442Z,2.50
2022-09-05T04:29:16.766Z,3.10
2022-09-05T04:31:56.245Z,2.40
2022-09-05T04:35:09.184Z,2.93
2022-09-05T04:37:55.132Z,3.53
2022-09-05T04:40:34.001Z,2.60
2022-09-05T04:43:24.816Z,2.80
2022-09-05T04:46:05.950Z,2.40
2022-09-05T04:48:53.414Z,2.57
2022-09-05T04:52:00.218Z,2.70
2022-09-05T04:54:56.490Z,2.93
2022-09-05T04:57:33.641Z,2.70
2022-09-05T05:06:04.956Z,2.80
2022-09-05T05:06:13.322Z,2.50
2022-09-05T05:06:18.911Z,2.63
2022-09-05T05:08:51.499Z,2.30
2022-09-05T05:17:35.352Z,2.33
2022-09-05T05:18:00.053Z,2.43
2022-09-05T05:18:12.353Z,2.30
2022-09-05T05:20:40.719Z,3.00
2022-09-05T05:23:13.745Z,2.87
2022-09-05T05:25:53.547Z,2.57
2022-09-05T05:28:27.168Z,2.20
2022-09-05T05:31:01.279Z,2.90
2022-09-05T05:33:35.087Z,2.53
2022-09-05T05:36:03.050Z,2.20
2022-09-05T05:38:53.566Z,3.20
2022-09-05T05:41:26.303Z,2.57
2022-09-05T05:43:53.071Z,2.63
2022-09-05T05:46:34.463Z,2.70
2022-09-05T05:49:42.323Z,3.17
2022-09-05T05:52:33.746Z,2.53
2022-09-05T05:55:28.440Z,2.80
2022-09-05T05:58:05.791Z,2.67
2022-09-05T06:00:51.998Z,2.77
2022-09-05T06:03:24.928Z,2.73
2022-09-05T06:06:08.084Z,2.50
2022-09-05T06:14:31.272Z,2.80
2022-09-05T06:14:57.886Z,3.27
2022-09-05T06:15:16.524Z,2.53
2022-09-05T06:18:25.508Z,2.53
2022-09-05T06:22:10.359Z,2.50
2022-09-05T06:24:08.994Z,3.10
2022-09-05T06:26:54.380Z,2.50
2022-09-05T06:29:58.480Z,2.70
2022-09-05T06:32:58.328Z,2.80
2022-09-05T06:35:37.460Z,2.63
2022-09-05T06:38:04.073Z,2.40
2022-09-05T06:40:42.314Z,2.60
2022-09-05T06:43:45.024Z,2.30
2022-09-05T06:46:40.872Z,4.00
2022-09-05T06:49:29.736Z,2.20
2022-09-05T06:52:28.252Z,2.43
2022-09-05T06:55:15.052Z,2.63
2022-09-05T06:57:52.718Z,2.80
2022-09-05T07:00:36.366Z,2.27
2022-09-05T07:03:22.730Z,2.30
2022-09-05T07:06:01.944Z,2.40
2022-09-05T07:08:45.152Z,2.17
2022-09-05T07:11:19.931Z,2.50
2022-09-05T07:14:04.819Z,2.40
2022-09-05T07:16:38.916Z,2.47
2022-09-05T07:19:18.577Z,3.00
2022-09-05T07:22:41.718Z,3.13
2022-09-05T07:25:08.986Z,3.20
2022-09-05T07:28:28.423Z,3.53
2022-09-05T07:30:50.982Z,4.67
2022-09-05T07:33:20.578Z,2.50
2022-09-05T07:35:47.888Z,3.27
2022-09-05T07:38:43.511Z,2.60
2022-09-05T07:41:20.262Z,2.30
2022-09-05T07:43:49.264Z,2.50
2022-09-05T07:46:20.952Z,2.37
2022-09-05T07:48:52.116Z,2.60
2022-09-05T07:56:56.623Z,2.60
2022-09-05T07:56:56.678Z,2.90
2022-09-05T07:57:32.014Z,3.87
2022-09-05T08:00:25.695Z,2.30
2022-09-05T08:02:55.026Z,2.57
2022-09-05T08:05:34.344Z,2.40
2022-09-05T08:08:06.055Z,2.47
2022-09-05T08:11:21.938Z,3.03
2022-09-05T08:13:46.300Z,2.50
2022-09-05T08:16:16.815Z,3.97
2022-09-05T08:18:54.731Z,4.37
2022-09-05T08:21:48.735Z,2.10
2022-09-05T08:24:27.205Z,2.60
2022-09-05T08:27:23.342Z,2.80
2022-09-05T08:30:25.172Z,2.10
2022-09-05T08:32:53.155Z,2.43
2022-09-05T08:35:41.202Z,2.50
2022-09-05T08:38:08.598Z,2.20
2022-09-05T08:40:39.264Z,2.50
2022-09-05T08:46:36.550Z,3.57
2022-09-05T08:47:02.974Z,2.20
2022-09-05T08:49:41.381Z,2.70
2022-09-05T08:52:32.399Z,2.33
2022-09-05T08:55:08.004Z,3.90
2022-09-05T08:57:52.805Z,2.80
2022-09-05T09:00:31.327Z,2.37
2022-09-05T09:03:19.503Z,2.57
2022-09-05T09:06:12.723Z,2.47
2022-09-05T09:09:06.978Z,2.70
2022-09-05T09:11:38.988Z,2.47
2022-09-05T09:14:31.080Z,2.10
2022-09-05T09:17:23.652Z,2.03
2022-09-05T09:20:09.918Z,1.90
2022-09-05T09:22:39.078Z,2.30
2022-09-05T09:25:16.768Z,1.70
2022-09-05T09:28:47.372Z,2.13
2022-09-05T09:31:11.374Z,2.00
2022-09-05T09:34:17.008Z,2.37
2022-09-05T09:36:58.740Z,1.73
2022-09-05T09:39:38.603Z,2.50
2022-09-05T09:42:33.229Z,2.20
2022-09-05T09:45:29.420Z,2.27
2022-09-05T09:48:32.540Z,1.60
2022-09-05T09:51:02.299Z,2.23
2022-09-05T09:53:41.235Z,1.63
2022-09-05T09:56:17.161Z,1.97
2022-09-05T09:58:53.256Z,2.10
2022-09-05T10:01:36.722Z,1.90
2022-09-05T10:09:07.895Z,2.60
2022-09-05T10:10:49.910Z,1.90
2022-09-05T10:10:53.747Z,1.90
2022-09-05T10:13:15.851Z,2.00
2022-09-05T10:16:07.384Z,2.00
2022-09-05T10:19:00.236Z,2.67
2022-09-05T10:21:36.002Z,1.70
2022-09-05T10:24:23.065Z,1.90
2022-09-05T10:27:27.218Z,2.00
2022-09-05T10:30:15.344Z,2.00
2022-09-05T10:35:17.775Z,2.00
2022-09-05T10:36:25.341Z,3.27
2022-09-05T10:39:14.392Z,1.90
2022-09-05T10:42:02.572Z,2.20
2022-09-05T10:44:40.454Z,2.00
2022-09-05T10:47:22.516Z,1.98
2022-09-05T10:49:50.534Z,2.00
2022-09-05T10:52:27.368Z,1.70
2022-09-05T10:55:14.800Z,1.90
2022-09-05T10:58:41.797Z,1.85
2022-09-05T11:02:27.530Z,1.70
2022-09-05T11:04:07.940Z,1.70
2022-09-05T11:06:52.852Z,1.70
2022-09-05T11:09:48.303Z,1.75
2022-09-05T11:12:37.627Z,1.80
2022-09-05T11:15:26.121Z,2.00
2022-09-05T11:18:09.109Z,2.03
2022-09-05T11:20:38.737Z,2.05
2022-09-05T11:23:12.650Z,1.75
2022-09-05T11:25:41.175Z,2.30
2022-09-05T11:28:17.475Z,1.80
2022-09-05T11:30:50.649Z,1.92
2022-09-05T11:39:48.425Z,1.90
2022-09-05T11:39:58.277Z,2.10
2022-09-05T11:40:31.149Z,1.80
2022-09-05T11:43:30.552Z,1.75
2022-09-05T11:46:32.504Z,1.60
2022-09-05T11:49:31.345Z,1.85
2022-09-05T11:52:17.037Z,1.83
2022-09-05T11:55:21.346Z,1.83
2022-09-05T11:58:43.278Z,1.50
2022-09-05T12:01:41.037Z,1.85
2022-09-05T12:04:32.516Z,2.35
2022-09-05T12:07:15.631Z,2.25
2022-09-05T12:10:10.356Z,1.98
2022-09-05T12:13:26.591Z,1.58
2022-09-05T12:16:08.617Z,1.98
2022-09-05T12:18:54.076Z,1.77
2022-09-05T12:21:45.172Z,1.77
2022-09-05T12:25:24.088Z,1.65
2022-09-05T12:27:42.035Z,1.80
2022-09-05T12:30:00.493Z,1.50
2022-09-05T12:35:45.728Z,1.83
2022-09-05T12:36:04.662Z,1.90
2022-09-05T12:40:46.160Z,2.00
2022-09-05T12:42:14.728Z,1.77
2022-09-05T12:44:46.583Z,1.90
2022-09-05T12:47:19.360Z,1.98
2022-09-05T12:50:15.401Z,1.83
2022-09-05T12:52:46.352Z,1.80
2022-09-05T12:55:33.614Z,1.92
2022-09-05T13:02:55.480Z,1.70
2022-09-05T13:03:09.165Z,1.60
2022-09-05T13:04:13.385Z,1.80
2022-09-05T13:06:35.773Z,1.63
2022-09-05T13:09:16.442Z,1.75
2022-09-05T13:14:49.162Z,1.73
2022-09-05T13:15:21.818Z,2.00
2022-09-05T13:18:08.514Z,1.90
2022-09-05T13:20:39.255Z,1.65
2022-09-05T13:23:17.180Z,2.20
2022-09-05T13:25:45.673Z,1.70
2022-09-05T13:28:14.476Z,2.03
2022-09-05T13:37:54.401Z,1.60
2022-09-05T13:38:05.340Z,1.83
2022-09-05T13:38:07.596Z,1.80
2022-09-05T13:39:23.279Z,1.80
2022-09-05T13:41:53.774Z,1.80
2022-09-05T13:44:26.453Z,1.60
2022-09-05T13:47:28.831Z,1.90
2022-09-05T13:50:22.319Z,1.63
2022-09-05T13:52:56.794Z,1.48
2022-09-05T13:55:45.171Z,1.65
2022-09-05T13:58:50.992Z,1.77
2022-09-05T14:01:54.609Z,1.55
2022-09-05T14:05:06.637Z,1.60
2022-09-05T14:07:57.689Z,1.80
2022-09-05T14:10:47.092Z,1.63
2022-09-05T14:13:27.367Z,1.77
2022-09-05T14:16:01.579Z,2.80
2022-09-05T14:18:30.177Z,1.60
2022-09-05T14:21:16.274Z,1.55
2022-09-05T14:23:56.303Z,1.70
2022-09-05T14:26:45.663Z,1.70
2022-09-05T14:29:20.900Z,3.63
2022-09-05T14:36:33.481Z,1.67
2022-09-05T14:37:50.572Z,1.80
2022-09-05T14:38:38.806Z,1.65
2022-09-05T14:41:39.972Z,3.70
2022-09-05T14:44:33.482Z,2.00
2022-09-05T14:47:36.411Z,1.65
2022-09-05T14:50:39.255Z,1.95
2022-09-05T14:56:46.449Z,1.65
2022-09-05T15:02:43.150Z,1.80
2022-09-05T15:02:50.347Z,1.52
2022-09-05T15:07:30.705Z,1.70
2022-09-05T15:12:16.061Z,1.60
2022-09-05T15:13:11.408Z,1.50
2022-09-05T15:15:40.619Z,1.40
2022-09-05T15:18:20.680Z,1.60
2022-09-05T15:20:52.907Z,1.80
2022-09-05T15:23:19.532Z,1.80
2022-09-05T15:26:01.835Z,1.90
2022-09-05T15:28:40.467Z,1.52
2022-09-05T15:31:18.791Z,1.50
2022-09-05T15:33:47.134Z,1.63
2022-09-05T15:36:17.164Z,1.73
2022-09-05T15:38:55.038Z,1.70
2022-09-05T15:41:24.927Z,1.90
2022-09-05T15:44:09.548Z,1.80
2022-09-05T15:47:03.715Z,1.73
2022-09-05T15:49:38.990Z,1.60
2022-09-05T15:52:37.820Z,1.40
2022-09-05T15:55:24.960Z,1.40
2022-09-05T15:58:03.355Z,1.55
2022-09-05T16:00:33.078Z,1.70
2022-09-05T16:04:28.704Z,1.60
2022-09-05T16:10:27.813Z,1.98
2022-09-05T16:10:42.376Z,1.70
2022-09-05T16:14:39.725Z,1.75
2022-09-05T16:23:19.238Z,1.70
2022-09-05T16:23:31.430Z,1.73
2022-09-05T16:23:40.431Z,1.90
2022-09-05T16:26:25.850Z,1.60
2022-09-05T16:29:10.573Z,1.90
2022-09-05T16:31:47.694Z,1.70
2022-09-05T16:34:49.768Z,1.88
2022-09-05T16:37:21.635Z,1.95
2022-09-05T16:40:16.634Z,2.05
2022-09-05T16:42:54.282Z,2.72
2022-09-05T16:45:43.540Z,1.50
2022-09-05T16:48:32.937Z,1.67
2022-09-05T16:51:15.947Z,1.90
2022-09-05T16:53:59.168Z,1.92
2022-09-05T16:56:37.879Z,1.92
2022-09-05T16:59:11.846Z,2.08
2022-09-05T17:02:07.543Z,1.95
2022-09-05T17:05:02.986Z,2.00
2022-09-05T17:08:09.264Z,1.70
2022-09-05T17:10:58.154Z,1.95
2022-09-05T17:13:38.231Z,2.10
2022-09-05T17:16:05.779Z,2.15
2022-09-05T17:18:35.304Z,2.15
2022-09-05T17:21:07.985Z,2.03
2022-09-05T17:29:16.530Z,2.35
2022-09-05T17:29:26.024Z,2.10
2022-09-05T17:32:32.097Z,2.20
2022-09-05T17:35:16.476Z,2.25
2022-09-05T17:38:11.059Z,2.30
2022-09-05T17:41:08.603Z,2.58
2022-09-05T17:43:38.598Z,2.42
2022-09-05T17:46:24.187Z,2.20
2022-09-05T17:49:08.645Z,2.35
2022-09-05T17:51:41.980Z,2.40
2022-09-05T17:54:25.535Z,2.50
2022-09-05T17:56:53.338Z,2.80
2022-09-05T17:59:20.277Z,2.40
2022-09-05T18:02:02.113Z,2.38
2022-09-05T18:04:46.905Z,2.58
2022-09-05T18:07:25.683Z,2.88
2022-09-05T18:10:12.737Z,3.28
2022-09-05T18:15:34.435Z,3.50
2022-09-05T18:18:05.067Z,3.20
2022-09-05T18:20:41.354Z,3.25
2022-09-05T18:23:39.338Z,3.28
2022-09-05T18:26:23.398Z,2.90
2022-09-05T18:29:14.392Z,3.13
2022-09-05T18:31:43.507Z,3.25
2022-09-05T18:34:14.642Z,3.10
2022-09-05T18:36:46.030Z,3.20
2022-09-05T18:39:27.696Z,3.15
2022-09-05T18:42:25.582Z,3.38
2022-09-05T18:45:02.654Z,3.13
2022-09-05T18:47:39.080Z,2.97
2022-09-05T18:50:26.955Z,3.00
2022-09-05T18:53:10.393Z,3.22
2022-09-05T18:56:11.024Z,3.55
2022-09-05T18:58:51.970Z,3.65
2022-09-05T19:01:32.149Z,3.22
2022-09-05T19:04:02.250Z,3.63
2022-09-05T19:06:36.071Z,3.47
2022-09-05T19:09:15.016Z,3.15
2022-09-05T19:11:53.683Z,3.35
2022-09-05T19:14:42.791Z,3.63
2022-09-05T19:17:20.283Z,3.22
2022-09-05T19:20:32.645Z,3.60
2022-09-05T19:23:10.395Z,3.40
2022-09-05T19:25:44.377Z,3.70
2022-09-05T19:36:46.051Z,4.30
2022-09-05T19:36:58.632Z,3.75
2022-09-05T19:37:06.619Z,3.70
2022-09-05T19:37:38.239Z,3.60
2022-09-05T19:43:37.682Z,4.88
2022-09-05T19:47:36.179Z,3.85
2022-09-05T19:47:39.127Z,3.75
2022-09-05T19:48:34.535Z,3.42
2022-09-05T19:51:17.112Z,3.50
2022-09-05T19:53:54.083Z,3.55
2022-09-05T19:56:43.315Z,4.07
2022-09-05T19:59:24.403Z,4.40
2022-09-05T20:01:52.941Z,4.03
2022-09-05T20:04:20.923Z,4.82
2022-09-05T20:06:49.141Z,5.47
2022-09-05T20:09:18.311Z,5.22
2022-09-05T20:11:50.087Z,4.45
2022-09-05T20:14:19.333Z,5.05
2022-09-05T20:16:49.671Z,5.45
2022-09-05T20:19:28.776Z,8.27
2022-09-05T20:22:24.273Z,4.90
2022-09-05T20:24:53.820Z,4.60
2022-09-05T20:27:27.205Z,5.00
2022-09-05T20:30:06.762Z,5.75
2022-09-05T20:32:46.408Z,5.20
2022-09-05T20:40:38.769Z,5.05
2022-09-05T20:43:11.996Z,5.15
2022-09-05T20:43:30.012Z,4.87
2022-09-05T20:43:58.347Z,4.97
2022-09-05T20:50:44.504Z,5.13
2022-09-05T20:54:24.889Z,4.57
2022-09-05T20:54:26.981Z,5.47
2022-09-05T20:54:59.506Z,5.05
2022-09-05T20:57:46.086Z,5.00
2022-09-05T21:00:21.783Z,5.10
2022-09-05T21:02:58.479Z,4.70
2022-09-05T21:05:27.629Z,5.20
2022-09-05T21:08:16.652Z,5.10
2022-09-05T21:10:54.869Z,5.43
2022-09-05T21:13:26.779Z,5.23
2022-09-05T21:15:54.674Z,4.90
2022-09-05T21:18:33.038Z,4.43
2022-09-05T21:21:02.851Z,4.83
2022-09-05T21:23:44.412Z,5.90
2022-09-05T21:26:24.235Z,4.60
2022-09-05T21:29:11.161Z,4.80
2022-09-05T21:31:54.701Z,4.50
2022-09-05T21:34:26.653Z,4.53
2022-09-05T21:37:01.201Z,4.60
2022-09-05T21:39:40.345Z,4.63
2022-09-05T21:44:29.470Z,4.53
2022-09-05T21:47:37.648Z,4.50
2022-09-05T21:47:55.594Z,4.80
2022-09-05T21:50:31.181Z,4.13
2022-09-05T21:54:06.554Z,4.67
2022-09-05T21:59:33.301Z,5.17
2022-09-05T21:59:33.585Z,4.50
2022-09-05T22:01:50.778Z,4.57
2022-09-05T22:04:09.617Z,4.13
2022-09-05T22:06:36.777Z,4.80
2022-09-05T22:09:11.431Z,4.50
2022-09-05T22:11:40.997Z,4.50
2022-09-05T22:14:09.175Z,4.90
2022-09-05T22:16:37.666Z,4.80
2022-09-05T22:19:22.333Z,4.80
2022-09-05T22:22:00.416Z,4.73
2022-09-05T22:24:29.311Z,4.70
2022-09-05T22:27:12.468Z,4.40
2022-09-05T22:29:40.242Z,5.77
2022-09-05T22:32:07.315Z,4.50
2022-09-05T22:34:34.177Z,4.33
2022-09-05T22:37:00.873Z,4.30
2022-09-05T22:39:37.397Z,4.10
2022-09-05T22:42:10.270Z,4.53
2022-09-05T22:44:38.800Z,4.33
2022-09-05T22:47:09.128Z,5.37
2022-09-05T22:49:36.536Z,4.73
2022-09-05T22:52:06.652Z,4.90
2022-09-05T22:54:34.125Z,4.47
2022-09-05T22:57:01.144Z,5.10
2022-09-05T22:59:27.810Z,4.50
2022-09-05T23:01:54.626Z,5.10
2022-09-05T23:04:21.483Z,4.23
2022-09-05T23:06:48.279Z,4.90
2022-09-05T23:09:15.007Z,5.13
2022-09-05T23:11:41.787Z,5.23
2022-09-05T23:14:08.466Z,5.10
2022-09-05T23:16:35.169Z,4.53
2022-09-05T23:19:01.897Z,4.60
2022-09-05T23:21:28.654Z,5.47
2022-09-05T23:23:55.387Z,5.13
2022-09-05T23:26:22.413Z,4.80
2022-09-05T23:28:49.167Z,5.23
2022-09-05T23:31:16.058Z,7.30
2022-09-05T23:33:42.889Z,5.60
2022-09-05T23:36:12.572Z,4.60
2022-09-05T23:38:41.548Z,5.20
2022-09-05T23:41:11.802Z,5.40
2022-09-05T23:43:38.457Z,5.17
2022-09-05T23:46:05.466Z,4.87
2022-09-05T23:48:33.249Z,5.10
2022-09-05T23:51:09.243Z,4.73
2022-09-05T23:53:36.248Z,5.27
2022-09-05T23:56:04.560Z,4.93
2022-09-05T23:58:31.734Z,4.67
